Terminal Aerodrome Forecast
Issued by NWS Charleston, WV

Current Version | Previous Version | Text Only | Print | Product List | Glossary Off
Versions: 1 2 3 4 5 6 7 8 9 10 11 12 13 14 15 16 17 18 19 20 21 22 23 24 25

532
FTUS41 KRLX 211437 AAA
TAFHTS
TAF AMD
KHTS 211437Z 2115/2212 16004KT P6SM BKN250
     FM220600 VRB03KT 5SM -SHRA OVC040=

USA.gov is the U.S. government's official web portal to all federal, state and local government web resources and services.